sensor_id;sensor_type;location;lat;lon;timestamp;pressure;altitude;pressure_sealevel;temperature;humidity
31044;BME280;17710;52.520;13.352;2023-12-04T00:01:25;101812.94;;;2.01;65.28
31044;BME280;17710;52.520;13.352;2023-12-04T00:03:52;101821.91;;;2.18;64.79
31044;BME280;17710;52.520;13.352;2023-12-04T00:06:19;101815.13;;;1.75;65.11
31044;BME280;17710;52.520;13.352;2023-12-04T00:08:45;101817.03;;;1.87;65.34
31044;BME280;17710;52.520;13.352;2023-12-04T00:11:13;101805.38;;;2.18;65.06
31044;BME280;17710;52.520;13.352;2023-12-04T00:13:39;101806.47;;;1.79;65.61
31044;BME280;17710;52.520;13.352;2023-12-04T00:16:06;101815.50;;;1.99;65.93
31044;BME280;17710;52.520;13.352;2023-12-04T00:18:33;101811.31;;;2.08;65.80
31044;BME280;17710;52.520;13.352;2023-12-04T00:20:59;101811.38;;;2.12;65.09
31044;BME280;17710;52.520;13.352;2023-12-04T00:23:25;101806.88;;;2.02;65.09
31044;BME280;17710;52.520;13.352;2023-12-04T00:25:53;101811.25;;;2.05;65.37
31044;BME280;17710;52.520;13.352;2023-12-04T00:28:22;101810.69;;;1.71;65.69
31044;BME280;17710;52.520;13.352;2023-12-04T00:30:48;101808.63;;;2.05;65.19
31044;BME280;17710;52.520;13.352;2023-12-04T00:33:15;101813.06;;;2.09;65.32
31044;BME280;17710;52.520;13.352;2023-12-04T00:35:41;101814.88;;;2.13;65.52
31044;BME280;17710;52.520;13.352;2023-12-04T00:38:08;101813.84;;;2.05;65.58
31044;BME280;17710;52.520;13.352;2023-12-04T00:40:34;101812.31;;;2.16;65.35
31044;BME280;17710;52.520;13.352;2023-12-04T00:43:00;101815.53;;;2.01;65.93
31044;BME280;17710;52.520;13.352;2023-12-04T00:45:28;101821.09;;;2.21;65.76
31044;BME280;17710;52.520;13.352;2023-12-04T00:47:54;101820.91;;;2.09;65.93
31044;BME280;17710;52.520;13.352;2023-12-04T00:50:21;101824.16;;;1.97;66.62
31044;BME280;17710;52.520;13.352;2023-12-04T00:52:47;101818.81;;;1.88;67.02
31044;BME280;17710;52.520;13.352;2023-12-04T00:55:14;101829.50;;;2.05;66.43
31044;BME280;17710;52.520;13.352;2023-12-04T00:57:39;101833.13;;;1.63;67.86
31044;BME280;17710;52.520;13.352;2023-12-04T01:00:07;101823.91;;;1.82;67.53
31044;BME280;17710;52.520;13.352;2023-12-04T01:02:35;101819.75;;;1.93;67.24
31044;BME280;17710;52.520;13.352;2023-12-04T01:05:01;101825.13;;;2.04;66.90
31044;BME280;17710;52.520;13.352;2023-12-04T01:07:28;101825.22;;;2.08;66.48
31044;BME280;17710;52.520;13.352;2023-12-04T01:09:54;101818.06;;;1.95;67.29
31044;BME280;17710;52.520;13.352;2023-12-04T01:12:21;101810.41;;;2.06;66.88
31044;BME280;17710;52.520;13.352;2023-12-04T01:14:47;101814.50;;;1.91;67.71
31044;BME280;17710;52.520;13.352;2023-12-04T01:17:13;101809.28;;;1.90;67.88
31044;BME280;17710;52.520;13.352;2023-12-04T01:19:41;101814.53;;;1.93;67.76
31044;BME280;17710;52.520;13.352;2023-12-04T01:22:08;101811.25;;;2.05;67.25
31044;BME280;17710;52.520;13.352;2023-12-04T01:24:34;101815.28;;;1.86;68.00
31044;BME280;17710;52.520;13.352;2023-12-04T01:27:01;101805.50;;;1.73;68.12
31044;BME280;17710;52.520;13.352;2023-12-04T01:29:27;101802.34;;;1.92;68.22
31044;BME280;17710;52.520;13.352;2023-12-04T01:31:54;101804.28;;;2.02;67.44
31044;BME280;17710;52.520;13.352;2023-12-04T01:34:21;101806.66;;;1.88;67.36
31044;BME280;17710;52.520;13.352;2023-12-04T01:36:48;101791.88;;;1.90;68.11
31044;BME280;17710;52.520;13.352;2023-12-04T01:39:15;101786.00;;;2.00;67.91
31044;BME280;17710;52.520;13.352;2023-12-04T01:41:41;101782.34;;;1.89;67.39
31044;BME280;17710;52.520;13.352;2023-12-04T01:44:07;101781.50;;;1.92;67.36
31044;BME280;17710;52.520;13.352;2023-12-04T01:46:34;101784.22;;;1.99;66.89
31044;BME280;17710;52.520;13.352;2023-12-04T01:49:01;101786.09;;;2.07;66.56
31044;BME280;17710;52.520;13.352;2023-12-04T01:51:29;101786.94;;;2.06;66.54
31044;BME280;17710;52.520;13.352;2023-12-04T01:53:59;101787.66;;;1.97;67.15
31044;BME280;17710;52.520;13.352;2023-12-04T01:56:26;101770.06;;;1.84;67.22
31044;BME280;17710;52.520;13.352;2023-12-04T01:58:52;101774.84;;;2.09;66.68
31044;BME280;17710;52.520;13.352;2023-12-04T02:01:19;101779.78;;;1.92;66.96
31044;BME280;17710;52.520;13.352;2023-12-04T02:03:46;101777.41;;;2.08;66.26
31044;BME280;17710;52.520;13.352;2023-12-04T02:06:13;101775.31;;;1.85;67.08
31044;BME280;17710;52.520;13.352;2023-12-04T02:08:40;101782.97;;;2.29;65.28
31044;BME280;17710;52.520;13.352;2023-12-04T02:11:08;101776.31;;;1.93;66.13
31044;BME280;17710;52.520;13.352;2023-12-04T02:13:34;101771.97;;;1.94;66.39
31044;BME280;17710;52.520;13.352;2023-12-04T02:16:03;101768.56;;;1.96;66.45
31044;BME280;17710;52.520;13.352;2023-12-04T02:18:32;101770.94;;;1.84;65.94
31044;BME280;17710;52.520;13.352;2023-12-04T02:21:00;101758.81;;;1.86;66.17
31044;BME280;17710;52.520;13.352;2023-12-04T02:23:29;101769.34;;;1.92;66.12
31044;BME280;17710;52.520;13.352;2023-12-04T02:25:59;101758.97;;;1.95;66.06
31044;BME280;17710;52.520;13.352;2023-12-04T02:28:32;101758.00;;;1.90;65.67
31044;BME280;17710;52.520;13.352;2023-12-04T02:31:01;101755.41;;;1.90;66.05
31044;BME280;17710;52.520;13.352;2023-12-04T02:33:29;101746.81;;;1.94;66.12
31044;BME280;17710;52.520;13.352;2023-12-04T02:35:57;101747.31;;;1.74;66.20
31044;BME280;17710;52.520;13.352;2023-12-04T02:38:25;101751.72;;;1.76;66.44
31044;BME280;17710;52.520;13.352;2023-12-04T02:40:51;101739.88;;;1.44;67.01
31044;BME280;17710;52.520;13.352;2023-12-04T02:43:19;101741.63;;;1.43;67.06
31044;BME280;17710;52.520;13.352;2023-12-04T02:45:46;101740.44;;;1.28;67.26
31044;BME280;17710;52.520;13.352;2023-12-04T02:48:12;101739.28;;;1.60;66.99
31044;BME280;17710;52.520;13.352;2023-12-04T02:50:38;101727.94;;;1.58;66.38
31044;BME280;17710;52.520;13.352;2023-12-04T02:53:05;101736.41;;;1.45;66.72
31044;BME280;17710;52.520;13.352;2023-12-04T02:55:31;101733.91;;;1.49;66.37
31044;BME280;17710;52.520;13.352;2023-12-04T02:57:58;101719.34;;;1.62;66.91
31044;BME280;17710;52.520;13.352;2023-12-04T03:00:25;101722.16;;;1.74;65.09
31044;BME280;17710;52.520;13.352;2023-12-04T03:02:52;101721.25;;;1.71;66.13
31044;BME280;17710;52.520;13.352;2023-12-04T03:05:19;101712.72;;;1.82;65.16
31044;BME280;17710;52.520;13.352;2023-12-04T03:07:45;101716.31;;;1.90;65.16
31044;BME280;17710;52.520;13.352;2023-12-04T03:10:12;101711.38;;;2.09;63.77
31044;BME280;17710;52.520;13.352;2023-12-04T03:12:38;101707.38;;;1.73;64.51
31044;BME280;17710;52.520;13.352;2023-12-04T03:15:05;101704.50;;;1.58;65.32
31044;BME280;17710;52.520;13.352;2023-12-04T03:17:33;101712.25;;;1.53;65.90
31044;BME280;17710;52.520;13.352;2023-12-04T03:20:00;101701.06;;;1.59;65.48
31044;BME280;17710;52.520;13.352;2023-12-04T03:22:26;101701.91;;;1.56;65.62
31044;BME280;17710;52.520;13.352;2023-12-04T03:24:52;101697.06;;;1.28;66.49
31044;BME280;17710;52.520;13.352;2023-12-04T03:27:19;101701.47;;;1.31;66.12
31044;BME280;17710;52.520;13.352;2023-12-04T03:29:48;101700.09;;;1.54;65.44
31044;BME280;17710;52.520;13.352;2023-12-04T03:32:14;101696.84;;;1.67;64.95
31044;BME280;17710;52.520;13.352;2023-12-04T03:34:42;101699.63;;;1.79;64.41
31044;BME280;17710;52.520;13.352;2023-12-04T03:37:09;101695.09;;;1.66;65.24
31044;BME280;17710;52.520;13.352;2023-12-04T03:39:35;101706.97;;;1.49;64.70
31044;BME280;17710;52.520;13.352;2023-12-04T03:42:02;101691.25;;;1.43;64.54
31044;BME280;17710;52.520;13.352;2023-12-04T03:44:29;101696.00;;;1.18;66.18
31044;BME280;17710;52.520;13.352;2023-12-04T03:46:55;101687.34;;;1.19;65.86
31044;BME280;17710;52.520;13.352;2023-12-04T03:49:21;101688.38;;;1.28;65.30
31044;BME280;17710;52.520;13.352;2023-12-04T03:51:49;101684.97;;;1.32;65.55
31044;BME280;17710;52.520;13.352;2023-12-04T03:54:15;101677.06;;;1.26;65.02
31044;BME280;17710;52.520;13.352;2023-12-04T03:56:42;101669.03;;;1.13;65.24
31044;BME280;17710;52.520;13.352;2023-12-04T03:59:08;101669.25;;;1.26;65.74
31044;BME280;17710;52.520;13.352;2023-12-04T04:01:35;101668.63;;;1.40;64.62
31044;BME280;17710;52.520;13.352;2023-12-04T04:04:01;101668.78;;;1.49;64.75
31044;BME280;17710;52.520;13.352;2023-12-04T04:06:28;101667.72;;;1.37;64.17
31044;BME280;17710;52.520;13.352;2023-12-04T04:08:56;101665.75;;;1.25;64.64
31044;BME280;17710;52.520;13.352;2023-12-04T04:11:22;101667.72;;;1.38;64.74
31044;BME280;17710;52.520;13.352;2023-12-04T04:13:48;101671.16;;;1.36;64.23
31044;BME280;17710;52.520;13.352;2023-12-04T04:16:15;101669.66;;;1.51;63.55
31044;BME280;17710;52.520;13.352;2023-12-04T04:18:42;101665.38;;;1.53;63.90
31044;BME280;17710;52.520;13.352;2023-12-04T04:21:09;101660.22;;;1.56;63.69
31044;BME280;17710;52.520;13.352;2023-12-04T04:23:35;101665.88;;;1.33;63.81
31044;BME280;17710;52.520;13.352;2023-12-04T04:26:06;101675.31;;;1.25;64.47
31044;BME280;17710;52.520;13.352;2023-12-04T04:28:33;101668.81;;;1.01;64.88
31044;BME280;17710;52.520;13.352;2023-12-04T04:30:59;101673.19;;;1.02;65.12
31044;BME280;17710;52.520;13.352;2023-12-04T04:33:26;101675.97;;;1.11;64.79
31044;BME280;17710;52.520;13.352;2023-12-04T04:35:52;101669.81;;;1.08;64.41
31044;BME280;17710;52.520;13.352;2023-12-04T04:38:18;101674.19;;;1.12;64.88
31044;BME280;17710;52.520;13.352;2023-12-04T04:40:45;101671.00;;;1.27;64.31
31044;BME280;17710;52.520;13.352;2023-12-04T04:43:13;101672.59;;;1.18;64.27
31044;BME280;17710;52.520;13.352;2023-12-04T04:45:40;101660.69;;;1.33;64.04
31044;BME280;17710;52.520;13.352;2023-12-04T04:48:07;101664.13;;;1.30;63.69
31044;BME280;17710;52.520;13.352;2023-12-04T04:50:33;101665.84;;;1.30;63.62
31044;BME280;17710;52.520;13.352;2023-12-04T04:53:00;101662.41;;;1.32;63.62
31044;BME280;17710;52.520;13.352;2023-12-04T04:55:26;101651.78;;;1.20;63.55
31044;BME280;17710;52.520;13.352;2023-12-04T04:57:53;101647.81;;;1.42;62.83
31044;BME280;17710;52.520;13.352;2023-12-04T05:00:21;101653.00;;;0.89;64.49
31044;BME280;17710;52.520;13.352;2023-12-04T05:02:47;101651.41;;;0.99;64.70
31044;BME280;17710;52.520;13.352;2023-12-04T05:05:13;101657.78;;;1.14;63.78
31044;BME280;17710;52.520;13.352;2023-12-04T05:07:40;101649.94;;;1.11;63.62
31044;BME280;17710;52.520;13.352;2023-12-04T05:10:07;101641.88;;;0.99;63.95
31044;BME280;17710;52.520;13.352;2023-12-04T05:12:33;101643.41;;;0.88;64.27
31044;BME280;17710;52.520;13.352;2023-12-04T05:15:00;101638.59;;;1.09;63.55
31044;BME280;17710;52.520;13.352;2023-12-04T05:17:27;101638.53;;;1.06;63.92
31044;BME280;17710;52.520;13.352;2023-12-04T05:19:54;101634.72;;;1.39;62.37
31044;BME280;17710;52.520;13.352;2023-12-04T05:22:21;101623.13;;;1.18;63.23
31044;BME280;17710;52.520;13.352;2023-12-04T05:24:48;101627.56;;;1.24;62.88
31044;BME280;17710;52.520;13.352;2023-12-04T05:27:14;101620.09;;;1.44;62.20
31044;BME280;17710;52.520;13.352;2023-12-04T05:29:41;101618.44;;;1.52;61.79
31044;BME280;17710;52.520;13.352;2023-12-04T05:32:07;101608.97;;;1.55;61.78
31044;BME280;17710;52.520;13.352;2023-12-04T05:34:35;101610.41;;;1.38;62.03
31044;BME280;17710;52.520;13.352;2023-12-04T05:37:01;101610.34;;;1.34;62.43
31044;BME280;17710;52.520;13.352;2023-12-04T05:39:28;101608.59;;;1.33;62.80
31044;BME280;17710;52.520;13.352;2023-12-04T05:41:54;101605.03;;;1.25;61.89
31044;BME280;17710;52.520;13.352;2023-12-04T05:44:21;101607.72;;;1.31;62.84
31044;BME280;17710;52.520;13.352;2023-12-04T05:46:47;101604.19;;;1.27;62.63
31044;BME280;17710;52.520;13.352;2023-12-04T05:49:13;101603.25;;;1.22;63.07
31044;BME280;17710;52.520;13.352;2023-12-04T05:51:41;101611.19;;;1.30;63.00
31044;BME280;17710;52.520;13.352;2023-12-04T05:54:07;101605.88;;;1.24;63.31
31044;BME280;17710;52.520;13.352;2023-12-04T05:56:34;101603.47;;;1.39;63.42
31044;BME280;17710;52.520;13.352;2023-12-04T05:59:01;101604.91;;;1.18;63.64
31044;BME280;17710;52.520;13.352;2023-12-04T06:01:28;101607.59;;;1.23;64.33
31044;BME280;17710;52.520;13.352;2023-12-04T06:03:57;101598.06;;;1.25;63.92
31044;BME280;17710;52.520;13.352;2023-12-04T06:06:23;101600.06;;;1.41;63.64
31044;BME280;17710;52.520;13.352;2023-12-04T06:08:51;101604.50;;;1.47;63.64
31044;BME280;17710;52.520;13.352;2023-12-04T06:11:17;101605.97;;;1.30;64.50
31044;BME280;17710;52.520;13.352;2023-12-04T06:13:44;101599.94;;;1.34;64.42
31044;BME280;17710;52.520;13.352;2023-12-04T06:16:10;101602.84;;;1.53;63.89
31044;BME280;17710;52.520;13.352;2023-12-04T06:18:36;101594.28;;;1.60;63.57
31044;BME280;17710;52.520;13.352;2023-12-04T06:21:04;101603.00;;;1.63;63.09
31044;BME280;17710;52.520;13.352;2023-12-04T06:23:31;101599.63;;;1.70;63.23
31044;BME280;17710;52.520;13.352;2023-12-04T06:26:01;101603.25;;;1.81;62.95
31044;BME280;17710;52.520;13.352;2023-12-04T06:28:28;101601.28;;;1.63;62.99
31044;BME280;17710;52.520;13.352;2023-12-04T06:30:55;101605.06;;;1.86;62.76
31044;BME280;17710;52.520;13.352;2023-12-04T06:33:22;101596.94;;;1.64;63.44
31044;BME280;17710;52.520;13.352;2023-12-04T06:35:49;101592.78;;;1.76;63.10
31044;BME280;17710;52.520;13.352;2023-12-04T06:38:16;101586.97;;;1.38;64.24
31044;BME280;17710;52.520;13.352;2023-12-04T06:40:45;101591.44;;;1.45;64.25
31044;BME280;17710;52.520;13.352;2023-12-04T06:43:13;101589.03;;;1.59;63.80
31044;BME280;17710;52.520;13.352;2023-12-04T06:45:41;101585.47;;;1.51;64.05
31044;BME280;17710;52.520;13.352;2023-12-04T06:48:09;101584.66;;;1.58;63.85
31044;BME280;17710;52.520;13.352;2023-12-04T06:50:36;101584.75;;;1.63;63.63
31044;BME280;17710;52.520;13.352;2023-12-04T06:53:04;101585.66;;;1.66;64.02
31044;BME280;17710;52.520;13.352;2023-12-04T06:55:30;101575.16;;;1.60;63.98
31044;BME280;17710;52.520;13.352;2023-12-04T06:57:56;101569.66;;;1.40;64.69
31044;BME280;17710;52.520;13.352;2023-12-04T07:00:24;101570.69;;;1.51;64.66
31044;BME280;17710;52.520;13.352;2023-12-04T07:02:51;101562.81;;;1.47;64.48
31044;BME280;17710;52.520;13.352;2023-12-04T07:05:17;101562.44;;;1.81;63.64
31044;BME280;17710;52.520;13.352;2023-12-04T07:07:44;101558.91;;;1.76;63.91
31044;BME280;17710;52.520;13.352;2023-12-04T07:10:11;101559.03;;;1.88;63.21
31044;BME280;17710;52.520;13.352;2023-12-04T07:12:40;101552.97;;;1.89;63.37
31044;BME280;17710;52.520;13.352;2023-12-04T07:15:07;101551.41;;;2.02;62.59
31044;BME280;17710;52.520;13.352;2023-12-04T07:17:35;101549.03;;;2.25;62.47
31044;BME280;17710;52.520;13.352;2023-12-04T07:20:02;101547.28;;;2.24;62.21
31044;BME280;17710;52.520;13.352;2023-12-04T07:22:31;101543.75;;;2.19;62.18
31044;BME280;17710;52.520;13.352;2023-12-04T07:24:58;101542.06;;;2.24;61.77
31044;BME280;17710;52.520;13.352;2023-12-04T07:27:24;101541.97;;;2.13;62.60
31044;BME280;17710;52.520;13.352;2023-12-04T07:29:50;101544.03;;;2.42;61.46
31044;BME280;17710;52.520;13.352;2023-12-04T07:32:17;101543.22;;;2.50;61.50
31044;BME280;17710;52.520;13.352;2023-12-04T07:34:45;101543.03;;;2.32;61.28
31044;BME280;17710;52.520;13.352;2023-12-04T07:37:11;101544.84;;;2.37;61.86
31044;BME280;17710;52.520;13.352;2023-12-04T07:39:38;101552.84;;;2.57;61.01
31044;BME280;17710;52.520;13.352;2023-12-04T07:42:04;101549.88;;;2.21;62.31
31044;BME280;17710;52.520;13.352;2023-12-04T07:44:31;101542.31;;;2.45;61.67
31044;BME280;17710;52.520;13.352;2023-12-04T07:46:57;101543.28;;;2.55;60.76
31044;BME280;17710;52.520;13.352;2023-12-04T07:49:23;101538.16;;;2.65;60.25
31044;BME280;17710;52.520;13.352;2023-12-04T07:51:51;101540.78;;;2.67;60.74
31044;BME280;17710;52.520;13.352;2023-12-04T07:54:17;101537.03;;;2.39;60.81
31044;BME280;17710;52.520;13.352;2023-12-04T07:56:44;101532.78;;;2.50;61.15
31044;BME280;17710;52.520;13.352;2023-12-04T07:59:10;101540.63;;;2.52;61.29
31044;BME280;17710;52.520;13.352;2023-12-04T08:01:37;101544.22;;;2.64;60.51
31044;BME280;17710;52.520;13.352;2023-12-04T08:04:04;101542.31;;;2.45;60.20
31044;BME280;17710;52.520;13.352;2023-12-04T08:06:30;101538.94;;;2.57;59.92
31044;BME280;17710;52.520;13.352;2023-12-04T08:08:58;101532.97;;;2.68;60.40
31044;BME280;17710;52.520;13.352;2023-12-04T08:11:25;101539.41;;;3.08;59.07
31044;BME280;17710;52.520;13.352;2023-12-04T08:13:51;101536.69;;;2.98;58.77
31044;BME280;17710;52.520;13.352;2023-12-04T08:16:17;101535.72;;;2.84;58.83
31044;BME280;17710;52.520;13.352;2023-12-04T08:18:45;101532.25;;;2.85;59.14
31044;BME280;17710;52.520;13.352;2023-12-04T08:21:11;101529.75;;;3.00;58.17
31044;BME280;17710;52.520;13.352;2023-12-04T08:23:38;101528.97;;;3.11;58.18
31044;BME280;17710;52.520;13.352;2023-12-04T08:26:06;101527.28;;;3.15;57.54
31044;BME280;17710;52.520;13.352;2023-12-04T08:28:33;101529.13;;;3.36;57.00
31044;BME280;17710;52.520;13.352;2023-12-04T08:31:00;101540.38;;;3.24;56.90
31044;BME280;17710;52.520;13.352;2023-12-04T08:33:27;101537.81;;;3.32;56.55
31044;BME280;17710;52.520;13.352;2023-12-04T08:35:53;101533.28;;;3.02;57.24
31044;BME280;17710;52.520;13.352;2023-12-04T08:38:19;101530.72;;;3.11;57.08
31044;BME280;17710;52.520;13.352;2023-12-04T08:40:46;101529.06;;;3.24;57.16
31044;BME280;17710;52.520;13.352;2023-12-04T08:43:14;101526.50;;;3.28;56.25
31044;BME280;17710;52.520;13.352;2023-12-04T08:45:40;101526.34;;;3.07;56.96
31044;BME280;17710;52.520;13.352;2023-12-04T08:48:07;101523.88;;;3.28;57.23
31044;BME280;17710;52.520;13.352;2023-12-04T08:50:34;101529.06;;;3.25;56.69
31044;BME280;17710;52.520;13.352;2023-12-04T08:53:00;101520.44;;;3.38;56.69
31044;BME280;17710;52.520;13.352;2023-12-04T08:55:27;101523.00;;;3.29;56.35
31044;BME280;17710;52.520;13.352;2023-12-04T08:57:56;101522.09;;;3.24;56.88
31044;BME280;17710;52.520;13.352;2023-12-04T09:00:24;101519.66;;;3.54;56.31
31044;BME280;17710;52.520;13.352;2023-12-04T09:02:50;101517.03;;;3.51;55.73
31044;BME280;17710;52.520;13.352;2023-12-04T09:05:18;101522.88;;;3.11;56.34
31044;BME280;17710;52.520;13.352;2023-12-04T09:07:44;101521.41;;;3.52;55.70
31044;BME280;17710;52.520;13.352;2023-12-04T09:10:10;101519.59;;;3.42;56.05
31044;BME280;17710;52.520;13.352;2023-12-04T09:12:37;101513.53;;;3.48;55.89
31044;BME280;17710;52.520;13.352;2023-12-04T09:15:04;101521.47;;;3.65;55.68
31044;BME280;17710;52.520;13.352;2023-12-04T09:17:32;101526.59;;;3.49;55.57
31044;BME280;17710;52.520;13.352;2023-12-04T09:19:58;101523.16;;;3.53;55.65
31044;BME280;17710;52.520;13.352;2023-12-04T09:22:25;101519.66;;;3.51;55.74
31044;BME280;17710;52.520;13.352;2023-12-04T09:24:51;101530.00;;;3.33;56.12
31044;BME280;17710;52.520;13.352;2023-12-04T09:27:18;101526.53;;;3.33;56.29
31044;BME280;17710;52.520;13.352;2023-12-04T09:29:46;101519.59;;;3.39;56.70
31044;BME280;17710;52.520;13.352;2023-12-04T09:32:12;101520.59;;;3.66;55.93
31044;BME280;17710;52.520;13.352;2023-12-04T09:34:40;101517.16;;;3.73;55.71
31044;BME280;17710;52.520;13.352;2023-12-04T09:37:06;101519.69;;;3.62;55.59
31044;BME280;17710;52.520;13.352;2023-12-04T09:39:33;101520.53;;;3.55;55.69
31044;BME280;17710;52.520;13.352;2023-12-04T09:42:01;101518.81;;;3.61;55.22
31044;BME280;17710;52.520;13.352;2023-12-04T09:44:28;101514.28;;;3.30;56.69
31044;BME280;17710;52.520;13.352;2023-12-04T09:46:55;101514.50;;;3.64;56.22
31044;BME280;17710;52.520;13.352;2023-12-04T09:49:22;101512.78;;;3.75;55.85
31044;BME280;17710;52.520;13.352;2023-12-04T09:51:50;101512.00;;;3.91;55.70
31044;BME280;17710;52.520;13.352;2023-12-04T09:54:17;101508.34;;;3.52;56.38
31044;BME280;17710;52.520;13.352;2023-12-04T09:56:44;101507.53;;;3.66;56.03
31044;BME280;17710;52.520;13.352;2023-12-04T09:59:13;101517.00;;;3.48;56.03
31044;BME280;17710;52.520;13.352;2023-12-04T10:01:40;101505.69;;;3.46;56.47
31044;BME280;17710;52.520;13.352;2023-12-04T10:04:07;101501.22;;;3.29;57.01
31044;BME280;17710;52.520;13.352;2023-12-04T10:06:36;101495.28;;;3.55;56.93
31044;BME280;17710;52.520;13.352;2023-12-04T10:09:04;101492.78;;;3.81;55.86
31044;BME280;17710;52.520;13.352;2023-12-04T10:11:39;101495.38;;;3.74;55.97
31044;BME280;17710;52.520;13.352;2023-12-04T10:14:14;101492.84;;;3.98;55.07
31044;BME280;17710;52.520;13.352;2023-12-04T10:16:41;101491.13;;;4.14;54.40
31044;BME280;17710;52.520;13.352;2023-12-04T10:19:18;101487.66;;;4.10;55.04
31044;BME280;17710;52.520;13.352;2023-12-04T10:21:46;101478.84;;;3.88;54.59
31044;BME280;17710;52.520;13.352;2023-12-04T10:24:27;101485.91;;;4.09;53.77
31044;BME280;17710;52.520;13.352;2023-12-04T10:26:53;101476.22;;;3.81;54.67
31044;BME280;17710;52.520;13.352;2023-12-04T10:29:20;101471.78;;;3.63;55.31
31044;BME280;17710;52.520;13.352;2023-12-04T10:31:46;101469.94;;;3.42;56.47
31044;BME280;17710;52.520;13.352;2023-12-04T10:34:15;101461.41;;;3.81;55.27
31044;BME280;17710;52.520;13.352;2023-12-04T10:36:42;101465.00;;;4.15;54.75
31044;BME280;17710;52.520;13.352;2023-12-04T10:39:11;101451.00;;;3.92;55.20
31044;BME280;17710;52.520;13.352;2023-12-04T10:41:39;101445.78;;;4.09;54.95
31044;BME280;17710;52.520;13.352;2023-12-04T10:44:06;101444.06;;;4.14;54.54
31044;BME280;17710;52.520;13.352;2023-12-04T10:46:35;101446.66;;;4.03;54.56
31044;BME280;17710;52.520;13.352;2023-12-04T10:49:03;101444.91;;;4.00;54.60
31044;BME280;17710;52.520;13.352;2023-12-04T10:51:30;101433.59;;;4.05;54.85
31044;BME280;17710;52.520;13.352;2023-12-04T10:53:57;101437.97;;;4.34;54.38
31044;BME280;17710;52.520;13.352;2023-12-04T10:56:27;101429.28;;;4.57;54.35
31044;BME280;17710;52.520;13.352;2023-12-04T10:58:57;101420.53;;;4.15;54.81
31044;BME280;17710;52.520;13.352;2023-12-04T11:01:26;101417.06;;;4.34;54.59
31044;BME280;17710;52.520;13.352;2023-12-04T11:03:56;101421.44;;;4.58;53.25
31044;BME280;17710;52.520;13.352;2023-12-04T11:06:25;101405.72;;;4.40;53.92
31044;BME280;17710;52.520;13.352;2023-12-04T11:08:56;101407.47;;;4.32;54.47
31044;BME280;17710;52.520;13.352;2023-12-04T11:11:30;101398.75;;;4.24;54.69
31044;BME280;17710;52.520;13.352;2023-12-04T11:14:01;101406.56;;;4.07;55.00
31044;BME280;17710;52.520;13.352;2023-12-04T11:16:34;101408.34;;;4.26;54.68
31044;BME280;17710;52.520;13.352;2023-12-04T11:19:06;101399.63;;;4.36;54.79
31044;BME280;17710;52.520;13.352;2023-12-04T11:21:36;101399.63;;;4.36;53.99
31044;BME280;17710;52.520;13.352;2023-12-04T11:24:05;101396.13;;;4.19;54.98
31044;BME280;17710;52.520;13.352;2023-12-04T11:26:33;101390.00;;;4.05;54.99
31044;BME280;17710;52.520;13.352;2023-12-04T11:29:01;101393.47;;;4.03;55.56
31044;BME280;17710;52.520;13.352;2023-12-04T11:31:28;101389.94;;;3.81;56.50
31044;BME280;17710;52.520;13.352;2023-12-04T11:34:01;101393.44;;;3.83;56.73
31044;BME280;17710;52.520;13.352;2023-12-04T11:36:28;101387.28;;;3.56;57.79
31044;BME280;17710;52.520;13.352;2023-12-04T11:38:54;101384.69;;;3.64;57.57
31044;BME280;17710;52.520;13.352;2023-12-04T11:41:23;101390.81;;;3.83;57.23
31044;BME280;17710;52.520;13.352;2023-12-04T11:43:50;101381.28;;;4.01;56.64
31044;BME280;17710;52.520;13.352;2023-12-04T11:46:20;101387.41;;;4.32;56.13
31044;BME280;17710;52.520;13.352;2023-12-04T11:48:48;101376.94;;;4.66;55.43
31044;BME280;17710;52.520;13.352;2023-12-04T11:51:15;101376.94;;;4.57;55.13
31044;BME280;17710;52.520;13.352;2023-12-04T11:54:01;101381.28;;;4.64;54.80
31044;BME280;17710;52.520;13.352;2023-12-04T11:56:30;101370.84;;;4.59;55.20
31044;BME280;17710;52.520;13.352;2023-12-04T11:59:02;101363.75;;;4.96;54.05
31044;BME280;17710;52.520;13.352;2023-12-04T12:01:32;101382.16;;;4.63;54.29
31044;BME280;17710;52.520;13.352;2023-12-04T12:03:59;101368.22;;;4.43;55.29
31044;BME280;17710;52.520;13.352;2023-12-04T12:06:26;101352.44;;;4.90;54.13
31044;BME280;17710;52.520;13.352;2023-12-04T12:08:55;101359.44;;;4.83;54.31
31044;BME280;17710;52.520;13.352;2023-12-04T12:11:22;101361.13;;;5.02;53.09
31044;BME280;17710;52.520;13.352;2023-12-04T12:13:49;101351.63;;;4.57;54.68
31044;BME280;17710;52.520;13.352;2023-12-04T12:16:17;101351.63;;;4.54;54.92
31044;BME280;17710;52.520;13.352;2023-12-04T12:18:45;101350.78;;;4.46;56.08
31044;BME280;17710;52.520;13.352;2023-12-04T12:21:12;101349.03;;;4.34;55.92
31044;BME280;17710;52.520;13.352;2023-12-04T12:23:39;101345.53;;;4.22;56.13
31044;BME280;17710;52.520;13.352;2023-12-04T12:26:06;101338.56;;;3.98;57.24
31044;BME280;17710;52.520;13.352;2023-12-04T12:28:35;101338.59;;;4.19;57.05
31044;BME280;17710;52.520;13.352;2023-12-04T12:31:02;101334.19;;;4.27;56.82
31044;BME280;17710;52.520;13.352;2023-12-04T12:33:29;101326.38;;;4.24;56.56
31044;BME280;17710;52.520;13.352;2023-12-04T12:35:58;101329.84;;;4.23;57.42
31044;BME280;17710;52.520;13.352;2023-12-04T12:38:25;101325.47;;;4.34;56.90
31044;BME280;17710;52.520;13.352;2023-12-04T12:40:51;101326.34;;;4.27;56.98
31044;BME280;17710;52.520;13.352;2023-12-04T12:43:20;101320.25;;;4.09;57.99
31044;BME280;17710;52.520;13.352;2023-12-04T12:45:47;101311.50;;;4.49;56.50
31044;BME280;17710;52.520;13.352;2023-12-04T12:48:14;101308.91;;;4.51;56.75
31044;BME280;17710;52.520;13.352;2023-12-04T12:50:41;101320.25;;;4.04;57.48